createdAt,value
2018-12-06T00:01:23.926Z,4.90
2018-12-06T00:03:53.611Z,5.10
2018-12-06T00:06:23.130Z,5.33
2018-12-06T00:08:52.652Z,5.20
2018-12-06T00:11:22.243Z,5.37
2018-12-06T00:13:52.578Z,4.93
2018-12-06T00:16:22.063Z,5.93
2018-12-06T00:19:10.093Z,4.53
2018-12-06T00:21:39.607Z,5.00
2018-12-06T00:24:09.170Z,4.73
2018-12-06T00:26:38.715Z,5.10
2018-12-06T00:29:08.397Z,5.30
2018-12-06T00:31:37.894Z,5.20
2018-12-06T00:34:07.448Z,5.77
2018-12-06T00:36:36.953Z,5.43
2018-12-06T00:39:07.812Z,4.73
2018-12-06T00:41:37.295Z,4.70
2018-12-06T00:44:06.786Z,5.60
2018-12-06T00:46:36.350Z,4.60
2018-12-06T00:49:05.859Z,5.03
2018-12-06T00:51:35.335Z,5.90
2018-12-06T00:54:04.888Z,5.43
2018-12-06T00:56:34.388Z,5.73
2018-12-06T00:59:04.447Z,5.60
2018-12-06T01:01:33.958Z,5.90
2018-12-06T01:04:03.470Z,5.57
2018-12-06T01:06:33.015Z,5.27
2018-12-06T01:09:03.186Z,5.83
2018-12-06T01:11:32.822Z,5.53
2018-12-06T01:14:02.362Z,5.40
2018-12-06T01:16:31.854Z,5.73
2018-12-06T01:19:01.337Z,5.80
2018-12-06T01:21:31.688Z,5.10
2018-12-06T01:24:01.270Z,4.77
2018-12-06T01:26:30.755Z,5.63
2018-12-06T01:29:00.378Z,5.50
2018-12-06T01:31:29.964Z,4.70
2018-12-06T01:33:59.490Z,4.30
2018-12-06T01:36:29.043Z,5.13
2018-12-06T01:38:58.929Z,5.47
2018-12-06T01:41:28.407Z,5.30
2018-12-06T01:43:57.910Z,4.43
2018-12-06T01:46:27.374Z,5.33
2018-12-06T01:48:56.857Z,5.13
2018-12-06T01:51:26.390Z,5.10
2018-12-06T01:53:55.874Z,5.50
2018-12-06T01:56:25.389Z,5.33
2018-12-06T01:58:54.902Z,5.13
2018-12-06T02:01:24.396Z,5.90
2018-12-06T02:03:53.868Z,5.17
2018-12-06T02:06:23.386Z,5.07
2018-12-06T02:08:52.969Z,5.53
2018-12-06T02:11:22.787Z,5.60
2018-12-06T02:13:52.315Z,5.50
2018-12-06T02:16:21.813Z,5.13
2018-12-06T02:18:51.443Z,6.07
2018-12-06T02:21:21.134Z,5.20
2018-12-06T02:23:50.614Z,5.20
2018-12-06T02:26:20.236Z,5.03
2018-12-06T02:28:50.006Z,4.47
2018-12-06T02:31:19.499Z,5.40
2018-12-06T02:33:49.030Z,5.63
2018-12-06T02:36:18.671Z,5.30
2018-12-06T02:38:48.147Z,4.77
2018-12-06T02:41:17.652Z,5.37
2018-12-06T02:43:47.121Z,4.70
2018-12-06T02:46:16.646Z,5.10
2018-12-06T02:48:46.118Z,5.23
2018-12-06T02:51:15.622Z,5.53
2018-12-06T02:53:45.097Z,5.30
2018-12-06T02:56:14.592Z,5.33
2018-12-06T02:58:44.270Z,5.20
2018-12-06T03:01:13.783Z,5.00
2018-12-06T03:03:43.266Z,5.33
2018-12-06T03:06:12.776Z,5.23
2018-12-06T03:08:42.560Z,5.77
2018-12-06T03:11:12.272Z,5.50
2018-12-06T03:13:41.758Z,4.80
2018-12-06T03:16:11.406Z,5.57
2018-12-06T03:18:40.879Z,5.63
2018-12-06T03:21:10.400Z,5.33
2018-12-06T03:23:39.869Z,6.03
2018-12-06T03:26:09.381Z,5.57
2018-12-06T03:28:38.866Z,5.33
2018-12-06T03:31:08.351Z,5.87
2018-12-06T03:33:37.840Z,5.73
2018-12-06T03:36:07.366Z,5.23
2018-12-06T03:38:36.826Z,5.70
2018-12-06T03:41:06.562Z,4.60
2018-12-06T03:43:36.043Z,5.23
2018-12-06T03:46:05.555Z,5.80
2018-12-06T03:48:35.039Z,5.53
2018-12-06T03:51:04.536Z,5.63
2018-12-06T03:53:34.011Z,5.63
2018-12-06T03:56:03.672Z,5.80
2018-12-06T03:58:33.138Z,5.63
2018-12-06T04:01:02.668Z,5.73
2018-12-06T04:03:32.178Z,6.00
2018-12-06T04:06:01.675Z,6.67
2018-12-06T04:08:31.150Z,6.70
2018-12-06T04:11:00.654Z,6.20
2018-12-06T04:13:30.127Z,6.03
2018-12-06T04:15:59.719Z,6.47
2018-12-06T04:18:29.219Z,6.10
2018-12-06T04:20:58.717Z,6.17
2018-12-06T04:23:28.261Z,5.63
2018-12-06T04:25:57.779Z,6.20
2018-12-06T04:28:27.256Z,5.97
2018-12-06T04:30:56.759Z,6.37
2018-12-06T04:33:26.224Z,6.00
2018-12-06T04:35:55.727Z,6.47
2018-12-06T04:38:25.236Z,6.50
2018-12-06T04:40:54.738Z,6.63
2018-12-06T04:43:24.422Z,6.47
2018-12-06T04:45:53.910Z,5.90
2018-12-06T04:48:23.382Z,5.53
2018-12-06T04:50:52.883Z,5.90
2018-12-06T04:53:22.466Z,5.40
2018-12-06T04:55:51.949Z,6.57
2018-12-06T04:58:21.450Z,6.43
2018-12-06T05:00:50.964Z,6.37
2018-12-06T05:03:20.479Z,6.70
2018-12-06T05:05:49.986Z,7.13
2018-12-06T05:08:19.438Z,6.43
2018-12-06T05:10:48.933Z,7.53
2018-12-06T05:13:18.403Z,7.07
2018-12-06T05:15:47.898Z,6.73
2018-12-06T05:18:17.371Z,7.17
2018-12-06T05:20:46.879Z,7.30
2018-12-06T05:23:16.354Z,7.73
2018-12-06T05:25:45.891Z,8.03
2018-12-06T05:28:15.354Z,7.37
2018-12-06T05:30:44.838Z,7.73
2018-12-06T05:33:14.343Z,8.80
2018-12-06T05:35:43.832Z,8.33
2018-12-06T05:38:13.462Z,7.87
2018-12-06T05:40:42.942Z,7.53
2018-12-06T05:43:12.534Z,8.23
2018-12-06T05:45:44.094Z,8.67
2018-12-06T05:48:13.918Z,8.00
2018-12-06T05:50:43.394Z,9.03
2018-12-06T05:53:12.905Z,9.23
2018-12-06T05:55:42.418Z,8.90
2018-12-06T05:58:12.249Z,8.40
2018-12-06T06:00:41.761Z,8.83
2018-12-06T06:03:11.255Z,9.43
2018-12-06T06:05:40.738Z,9.00
2018-12-06T06:08:10.266Z,10.13
2018-12-06T06:10:39.821Z,9.60
2018-12-06T06:13:09.331Z,8.60
2018-12-06T06:15:38.818Z,9.23
2018-12-06T06:18:08.329Z,11.60
2018-12-06T06:20:37.859Z,9.27
2018-12-06T06:23:07.369Z,9.30
2018-12-06T06:25:36.836Z,10.50
2018-12-06T06:28:06.381Z,10.00
2018-12-06T06:30:35.878Z,10.07
2018-12-06T06:33:05.438Z,11.00
2018-12-06T06:35:34.914Z,10.63
2018-12-06T06:38:04.502Z,10.40
2018-12-06T06:40:33.994Z,10.53
2018-12-06T06:43:03.506Z,10.87
2018-12-06T06:45:33.305Z,10.30
2018-12-06T06:48:02.825Z,9.50
2018-12-06T06:50:32.294Z,10.67
2018-12-06T06:53:01.803Z,9.93
2018-12-06T06:55:31.267Z,10.03
2018-12-06T06:58:00.794Z,10.93
2018-12-06T07:00:30.290Z,10.97
2018-12-06T07:02:59.817Z,11.27
2018-12-06T07:05:29.370Z,11.67
2018-12-06T07:07:58.880Z,10.40
2018-12-06T07:10:28.359Z,10.80
2018-12-06T07:12:57.870Z,12.37
2018-12-06T07:15:27.350Z,10.83
2018-12-06T07:17:56.854Z,10.07
2018-12-06T07:20:26.342Z,12.23
2018-12-06T07:22:55.847Z,11.80
2018-12-06T07:25:25.318Z,11.97
2018-12-06T07:27:54.834Z,11.60
2018-12-06T07:30:24.332Z,12.43
2018-12-06T07:32:53.839Z,11.67
2018-12-06T07:35:23.336Z,12.57
2018-12-06T07:37:52.842Z,12.17
2018-12-06T07:40:22.322Z,11.97
2018-12-06T07:42:51.840Z,12.33
2018-12-06T07:45:21.346Z,12.43
2018-12-06T07:47:50.902Z,13.20
2018-12-06T07:50:20.399Z,12.17
2018-12-06T07:52:49.913Z,12.27
2018-12-06T07:55:19.394Z,12.73
2018-12-06T07:57:48.926Z,13.77
2018-12-06T08:00:18.440Z,13.60
2018-12-06T08:02:47.938Z,13.73
2018-12-06T08:05:17.446Z,14.83
2018-12-06T08:07:47.088Z,13.93
2018-12-06T08:10:16.733Z,14.83
2018-12-06T08:12:46.260Z,14.60
2018-12-06T08:15:15.779Z,15.07
2018-12-06T08:17:45.287Z,14.47
2018-12-06T08:20:14.791Z,13.20
2018-12-06T08:22:44.299Z,15.60
2018-12-06T08:25:13.774Z,14.07
2018-12-06T08:27:43.270Z,13.73
2018-12-06T08:30:12.876Z,14.33
2018-12-06T08:32:42.380Z,14.33
2018-12-06T08:35:11.918Z,13.60
2018-12-06T08:37:41.419Z,13.63
2018-12-06T08:40:10.914Z,14.03
2018-12-06T08:42:45.659Z,13.83
2018-12-06T08:45:11.946Z,13.77
2018-12-06T08:47:41.590Z,14.03
2018-12-06T08:50:11.330Z,14.20
2018-12-06T08:52:40.838Z,13.90
2018-12-06T08:55:10.636Z,15.43
2018-12-06T08:57:40.150Z,15.40
2018-12-06T09:00:11.406Z,14.17
2018-12-06T09:02:41.022Z,13.63
2018-12-06T09:05:11.118Z,14.93
2018-12-06T09:07:40.762Z,14.33
2018-12-06T09:10:10.318Z,13.03
2018-12-06T09:12:39.839Z,13.77
2018-12-06T09:15:09.672Z,13.93
2018-12-06T09:17:39.206Z,15.00
2018-12-06T09:20:08.978Z,13.63
2018-12-06T09:22:38.510Z,14.40
2018-12-06T09:25:08.445Z,13.93
2018-12-06T09:27:37.964Z,14.10
2018-12-06T09:30:08.450Z,13.77
2018-12-06T09:32:37.980Z,14.13
2018-12-06T09:35:07.623Z,13.53
2018-12-06T09:37:37.275Z,13.73
2018-12-06T09:40:07.186Z,13.70
2018-12-06T09:42:36.711Z,13.60
2018-12-06T09:45:07.377Z,13.67
2018-12-06T09:47:37.055Z,13.03
2018-12-06T09:50:07.754Z,14.00
2018-12-06T09:52:37.287Z,14.17
2018-12-06T09:55:06.814Z,13.30
2018-12-06T09:57:36.322Z,14.10
2018-12-06T10:00:07.212Z,14.53
2018-12-06T10:02:36.697Z,14.07
2018-12-06T10:05:06.484Z,14.67
2018-12-06T10:07:36.006Z,14.40
2018-12-06T10:10:06.503Z,13.60
2018-12-06T10:12:36.026Z,14.93
2018-12-06T10:15:05.886Z,14.60
2018-12-06T10:17:35.523Z,14.23
2018-12-06T10:20:06.638Z,12.60
2018-12-06T10:22:36.167Z,13.30
2018-12-06T10:25:07.082Z,11.33
2018-12-06T10:27:36.638Z,12.13
2018-12-06T10:30:07.234Z,12.13
2018-12-06T10:32:36.761Z,12.17
2018-12-06T10:35:06.530Z,11.07
2018-12-06T10:37:36.035Z,10.60
2018-12-06T10:40:05.954Z,10.83
2018-12-06T10:42:35.482Z,11.50
2018-12-06T10:45:05.914Z,10.53
2018-12-06T10:47:35.456Z,11.20
2018-12-06T10:50:05.738Z,11.00
2018-12-06T10:52:35.235Z,10.50
2018-12-06T10:55:05.282Z,9.60
2018-12-06T10:57:34.791Z,9.17
2018-12-06T11:00:06.842Z,9.73
2018-12-06T11:02:41.619Z,9.93
2018-12-06T11:05:11.272Z,10.40
2018-12-06T11:07:40.884Z,9.33
2018-12-06T11:10:10.649Z,9.10
2018-12-06T11:12:40.184Z,8.67
2018-12-06T11:15:09.963Z,8.97
2018-12-06T11:17:39.893Z,8.97
2018-12-06T11:20:09.582Z,8.30
2018-12-06T11:22:39.077Z,8.50
2018-12-06T11:25:08.922Z,8.27
2018-12-06T11:27:39.145Z,7.87
2018-12-06T11:30:09.201Z,8.27
2018-12-06T11:32:38.693Z,7.50
2018-12-06T11:35:08.255Z,7.67
2018-12-06T11:37:37.730Z,7.70
2018-12-06T11:40:07.390Z,7.40
2018-12-06T11:42:37.072Z,8.23
2018-12-06T11:45:07.216Z,8.40
2018-12-06T11:47:36.721Z,7.77
2018-12-06T11:50:07.420Z,7.40
2018-12-06T11:52:36.912Z,7.73
2018-12-06T11:55:06.553Z,8.57
2018-12-06T11:57:36.106Z,7.90
2018-12-06T12:00:06.938Z,9.20
2018-12-06T12:02:36.474Z,8.10
2018-12-06T12:05:06.107Z,8.03
2018-12-06T12:07:35.574Z,8.93
2018-12-06T12:10:05.631Z,8.20
2018-12-06T12:12:35.132Z,8.70
2018-12-06T12:15:04.945Z,9.77
2018-12-06T12:17:34.515Z,9.73
2018-12-06T12:20:05.514Z,10.40
2018-12-06T12:22:35.279Z,9.00
2018-12-06T12:25:05.309Z,9.93
2018-12-06T12:27:34.798Z,8.93
2018-12-06T12:30:04.774Z,8.90
2018-12-06T12:32:34.267Z,9.23
2018-12-06T12:35:04.142Z,9.03
2018-12-06T12:37:33.618Z,8.57
2018-12-06T12:40:03.126Z,7.50
2018-12-06T12:42:32.706Z,8.60
2018-12-06T12:45:02.197Z,9.13
2018-12-06T12:47:31.699Z,9.67
2018-12-06T12:50:01.234Z,9.63
2018-12-06T12:52:30.750Z,9.43
2018-12-06T12:55:00.250Z,8.73
2018-12-06T12:57:29.782Z,9.37
2018-12-06T13:00:02.284Z,8.87
2018-12-06T13:02:32.267Z,8.53
2018-12-06T13:05:02.402Z,9.87
2018-12-06T13:07:32.162Z,9.43
2018-12-06T13:10:01.649Z,9.20
2018-12-06T13:12:31.155Z,9.43
2018-12-06T13:15:00.771Z,9.30
2018-12-06T13:17:30.331Z,8.97
2018-12-06T13:19:59.870Z,8.63
2018-12-06T13:22:29.421Z,9.73
2018-12-06T13:24:58.916Z,10.03
2018-12-06T13:27:28.439Z,9.50
2018-12-06T13:29:57.979Z,9.97
2018-12-06T13:32:27.490Z,10.03
2018-12-06T13:34:56.970Z,9.57
2018-12-06T13:37:26.494Z,9.57
2018-12-06T13:39:56.627Z,10.03
2018-12-06T13:42:26.303Z,8.67
2018-12-06T13:44:55.783Z,9.27
2018-12-06T13:47:25.263Z,8.70
2018-12-06T13:49:54.800Z,9.40
2018-12-06T13:52:24.303Z,8.73
2018-12-06T13:54:53.781Z,9.27
2018-12-06T13:57:23.319Z,8.47
2018-12-06T13:59:52.795Z,9.33
2018-12-06T14:02:22.311Z,9.07
2018-12-06T14:04:51.816Z,10.43
2018-12-06T14:07:21.362Z,9.00
2018-12-06T14:09:50.871Z,9.97
2018-12-06T14:12:20.347Z,12.77
2018-12-06T14:14:50.103Z,10.57
2018-12-06T14:17:19.771Z,11.57
2018-12-06T14:20:09.770Z,12.00
2018-12-06T14:22:51.302Z,11.90
2018-12-06T14:25:20.786Z,12.33
2018-12-06T14:27:50.267Z,11.90
2018-12-06T14:30:19.915Z,13.03
2018-12-06T14:32:49.392Z,11.53
2018-12-06T14:35:18.901Z,12.30
2018-12-06T14:37:48.394Z,14.03
2018-12-06T14:40:18.038Z,9.70
2018-12-06T14:42:47.532Z,16.37
2018-12-06T14:45:18.762Z,16.53
2018-12-06T14:47:48.447Z,14.77
2018-12-06T14:52:55.706Z,9.93
2018-12-06T14:55:25.221Z,8.73
2018-12-06T14:57:54.691Z,8.60
2018-12-06T15:00:24.214Z,7.83
2018-12-06T15:02:53.719Z,8.77
2018-12-06T15:05:23.207Z,7.50
2018-12-06T15:07:52.670Z,7.17
2018-12-06T15:10:22.679Z,8.33
2018-12-06T15:12:52.154Z,8.87
2018-12-06T15:15:21.659Z,11.00
2018-12-06T15:17:51.186Z,11.93
2018-12-06T15:23:14.083Z,8.03
2018-12-06T15:25:43.631Z,9.77
2018-12-06T15:28:13.169Z,10.83
2018-12-06T15:30:42.947Z,10.57
2018-12-06T15:33:12.447Z,10.17
2018-12-06T15:35:41.986Z,8.87
2018-12-06T15:38:15.723Z,10.63
2018-12-06T15:40:49.047Z,9.77
2018-12-06T15:43:18.537Z,10.00
2018-12-06T15:45:48.092Z,8.60
2018-12-06T15:48:17.578Z,8.43
2018-12-06T15:50:47.089Z,8.93
2018-12-06T15:53:16.727Z,8.50
2018-12-06T15:55:46.202Z,8.87
2018-12-06T15:58:15.664Z,9.00
2018-12-06T16:00:45.214Z,8.93
2018-12-06T16:03:15.591Z,8.57
2018-12-06T16:05:45.203Z,8.17
2018-12-06T16:08:16.080Z,9.73
2018-12-06T16:10:46.362Z,14.53
2018-12-06T16:13:15.843Z,13.20
2018-12-06T16:15:45.322Z,12.47
2018-12-06T16:18:14.867Z,11.67
2018-12-06T16:20:44.362Z,12.13
2018-12-06T16:23:13.851Z,10.63
2018-12-06T16:25:43.396Z,10.43
2018-12-06T16:28:12.867Z,11.17
2018-12-06T16:30:42.350Z,10.47
2018-12-06T16:33:11.863Z,11.40
2018-12-06T16:35:41.654Z,12.03
2018-12-06T16:38:11.248Z,11.63
2018-12-06T16:40:40.791Z,10.77
2018-12-06T16:43:10.691Z,12.47
2018-12-06T16:45:40.302Z,10.90
2018-12-06T16:48:09.790Z,12.00
2018-12-06T16:50:39.304Z,12.33
2018-12-06T16:53:08.838Z,11.93
2018-12-06T16:55:38.314Z,11.77
2018-12-06T16:58:07.810Z,10.97
2018-12-06T17:00:37.366Z,12.77
2018-12-06T17:03:06.859Z,13.10
2018-12-06T17:05:36.402Z,13.47
2018-12-06T17:08:05.928Z,11.67
2018-12-06T17:10:35.418Z,12.67
2018-12-06T17:13:04.899Z,11.77
2018-12-06T17:15:34.453Z,13.57
2018-12-06T17:18:03.974Z,13.93
2018-12-06T17:20:33.594Z,13.50
2018-12-06T17:23:03.410Z,15.67
2018-12-06T17:25:33.035Z,16.50
2018-12-06T17:28:02.510Z,13.97
2018-12-06T17:30:32.050Z,16.50
2018-12-06T17:33:01.527Z,12.13
2018-12-06T17:35:31.155Z,13.70
2018-12-06T17:38:00.698Z,13.97
2018-12-06T17:40:30.190Z,15.50
2018-12-06T17:42:59.879Z,15.33
2018-12-06T17:45:29.398Z,14.90
2018-12-06T17:47:58.890Z,15.70
2018-12-06T17:50:28.398Z,13.50
2018-12-06T17:52:57.966Z,15.27
2018-12-06T17:55:27.463Z,14.63
2018-12-06T17:57:56.954Z,15.00
2018-12-06T18:00:26.601Z,13.03
2018-12-06T18:02:56.129Z,14.23
2018-12-06T18:05:25.727Z,13.00
2018-12-06T18:07:55.246Z,13.33
2018-12-06T18:10:24.978Z,13.67
2018-12-06T18:12:54.480Z,14.10
2018-12-06T18:15:24.162Z,14.93
2018-12-06T18:17:53.914Z,15.80
2018-12-06T18:20:23.399Z,14.23
2018-12-06T18:22:52.919Z,13.27
2018-12-06T18:25:22.434Z,12.60
2018-12-06T18:27:51.936Z,11.80
2018-12-06T18:30:21.526Z,12.13
2018-12-06T18:32:51.059Z,13.13
2018-12-06T18:35:20.598Z,13.10
2018-12-06T18:37:50.159Z,11.57
2018-12-06T18:40:19.697Z,14.60
2018-12-06T18:42:49.190Z,13.40
2018-12-06T18:45:18.734Z,12.97
2018-12-06T18:47:48.223Z,13.37
2018-12-06T18:50:17.742Z,12.13
2018-12-06T18:52:47.306Z,12.30
2018-12-06T18:55:17.538Z,11.63
2018-12-06T18:57:47.926Z,12.93
2018-12-06T19:00:17.558Z,11.63
2018-12-06T19:02:47.126Z,11.57
2018-12-06T19:05:16.658Z,12.23
2018-12-06T19:07:46.184Z,12.00
2018-12-06T19:10:15.743Z,12.03
2018-12-06T19:12:45.699Z,11.93
2018-12-06T19:15:15.263Z,13.43
2018-12-06T19:17:44.766Z,12.43
2018-12-06T19:20:14.273Z,11.80
2018-12-06T19:22:43.847Z,11.53
2018-12-06T19:25:13.438Z,11.30
2018-12-06T19:27:42.939Z,11.63
2018-12-06T19:30:12.487Z,12.33
2018-12-06T19:32:42.095Z,12.27
2018-12-06T19:35:11.623Z,12.10
2018-12-06T19:37:42.030Z,11.47
2018-12-06T19:40:11.543Z,13.10
2018-12-06T19:42:41.050Z,12.57
2018-12-06T19:45:10.606Z,12.47
2018-12-06T19:47:40.131Z,12.37
2018-12-06T19:50:09.787Z,12.67
2018-12-06T19:52:39.339Z,14.33
2018-12-06T19:55:08.984Z,14.13
2018-12-06T19:57:38.542Z,13.57
2018-12-06T20:00:08.561Z,14.27
2018-12-06T20:02:38.270Z,14.37
2018-12-06T20:05:08.122Z,14.40
2018-12-06T20:07:37.638Z,16.27
2018-12-06T20:10:09.042Z,14.07
2018-12-06T20:12:38.698Z,13.63
2018-12-06T20:15:08.230Z,13.77
2018-12-06T20:17:37.870Z,14.53
2018-12-06T20:20:08.054Z,13.20
2018-12-06T20:22:37.589Z,13.27
2018-12-06T20:25:07.159Z,12.10
2018-12-06T20:27:36.667Z,15.17
2018-12-06T20:30:06.883Z,14.67
2018-12-06T20:32:36.418Z,13.60
2018-12-06T20:35:06.174Z,13.67
2018-12-06T20:37:35.709Z,12.40
2018-12-06T20:40:05.411Z,12.37
2018-12-06T20:42:34.991Z,11.83
2018-12-06T20:45:04.842Z,11.50
2018-12-06T20:47:34.450Z,10.63
2018-12-06T20:50:04.918Z,9.60
2018-12-06T20:52:34.611Z,9.97
2018-12-06T20:55:04.254Z,10.50
2018-12-06T20:57:37.080Z,11.20
2018-12-06T21:00:06.487Z,11.57
2018-12-06T21:02:36.903Z,11.30
2018-12-06T21:05:08.093Z,12.97
2018-12-06T21:07:37.647Z,13.07
2018-12-06T21:10:07.407Z,14.00
2018-12-06T21:12:36.987Z,13.67
2018-12-06T21:15:07.414Z,14.07
2018-12-06T21:17:37.333Z,12.83
2018-12-06T21:20:08.068Z,13.23
2018-12-06T21:22:37.622Z,13.73
2018-12-06T21:25:07.883Z,13.93
2018-12-06T21:27:37.573Z,13.60
2018-12-06T21:30:07.863Z,14.70
2018-12-06T21:32:37.406Z,12.70
2018-12-06T21:35:06.951Z,12.70
2018-12-06T21:37:36.503Z,12.17
2018-12-06T21:40:06.896Z,8.33
2018-12-06T21:42:36.426Z,8.00
2018-12-06T21:45:06.479Z,7.73
2018-12-06T21:47:35.990Z,7.77
2018-12-06T21:50:07.512Z,7.53
2018-12-06T21:52:37.014Z,7.83
2018-12-06T21:55:07.142Z,7.50
2018-12-06T21:57:36.643Z,8.00
2018-12-06T22:00:07.430Z,7.60
2018-12-06T22:02:36.953Z,7.43
2018-12-06T22:05:06.738Z,6.50
2018-12-06T22:07:36.254Z,6.93
2018-12-06T22:10:06.946Z,6.70
2018-12-06T22:12:36.494Z,6.37
2018-12-06T22:15:06.155Z,6.23
2018-12-06T22:17:35.643Z,6.87
2018-12-06T22:20:05.806Z,5.30
2018-12-06T22:22:35.321Z,5.37
2018-12-06T22:25:05.157Z,5.80
2018-12-06T22:27:34.666Z,5.90
2018-12-06T22:30:04.378Z,5.87
2018-12-06T22:32:33.924Z,5.83
2018-12-06T22:35:03.556Z,5.53
2018-12-06T22:37:33.039Z,5.57
2018-12-06T22:40:02.571Z,6.20
2018-12-06T22:42:32.083Z,5.63
2018-12-06T22:46:06.850Z,6.00
2018-12-06T22:48:36.363Z,6.20
2018-12-06T22:51:06.107Z,6.10
2018-12-06T22:53:35.589Z,6.93
2018-12-06T22:56:05.223Z,6.80
2018-12-06T22:58:34.762Z,6.53
2018-12-06T23:01:07.487Z,5.90
2018-12-06T23:03:37.020Z,7.03
2018-12-06T23:06:07.206Z,6.50
2018-12-06T23:08:36.830Z,6.70
2018-12-06T23:11:06.388Z,6.60
2018-12-06T23:13:35.888Z,6.50
2018-12-06T23:16:05.654Z,6.30
2018-12-06T23:18:35.196Z,7.63
2018-12-06T23:21:05.217Z,6.67
2018-12-06T23:23:34.706Z,7.03
2018-12-06T23:26:04.262Z,7.20
2018-12-06T23:28:33.746Z,7.07
2018-12-06T23:31:03.234Z,6.23
2018-12-06T23:33:32.850Z,6.73
2018-12-06T23:36:02.363Z,6.93
2018-12-06T23:38:31.854Z,6.97
2018-12-06T23:41:01.407Z,6.63
2018-12-06T23:43:30.889Z,6.90
2018-12-06T23:46:00.391Z,6.90
2018-12-06T23:48:29.927Z,6.37
2018-12-06T23:51:10.552Z,7.07
2018-12-06T23:53:40.088Z,7.40
2018-12-06T23:56:09.597Z,6.73
2018-12-06T23:58:39.071Z,6.73
